Impacts TAF Board
For situational awareness. Not to be used for flight planning purposes.
IDs:

KSFO - San Francisco Intl, CA, US

Issued at 0001 UTC 12 Dec 2018
Updated at 0230 UTC 12 Dec 2018
Potential Impact None Slight Moderate High
Time0156Z 12/03Z 12/04Z 12/05Z 12/06Z 12/07Z 12/08Z 12/09Z 12/10Z 12/11Z 12/12Z 12/13Z 12/14Z 12/15Z>>
Type OBS PRVL PRVL PRVL PRVL PRVL PRVL PRVL PRVL PRVL PRVL PRVL PRVL PRVL
VIS 10 >6 >6 >6 >6 >6 >6 >6 >6 >6 6 6 6 6
CIG 200 -- -- -- -- -- -- 8 8 8 5 5 5 5
Cover BKN SCT SCT SCT SCT SCT SCT BKN BKN BKN BKN BKN BKN BKN
FltCat VFR VFR VFR VFR VFR VFR VFR IFR IFR IFR IFR IFR IFR IFR
WX -- -- -- -- -- -- -- -- -- -- BR BR BR BR
WDir 240 270 290 290 290 290 290 VRB VRB VRB 280 280 280 280
WSpd 6 12 5 5 5 5 5 4 4 4 8 8 8 8
WGst -- -- -- -- -- -- -- -- -- -- -- -- -- --
Raw TAF
KSFO 120001Z 1200/1306 27012KT P6SM FEW008 SCT250
  FM120400 29005KT P6SM FEW008 SCT250
  FM120900 VRB04KT P6SM BKN008
  FM121200 28008KT 6SM BR BKN005
  FM121800 03008KT 6SM BR SCT008 SCT250
  FM122100 36010KT P6SM SCT200
  FM130000 29010KT P6SM SCT200


Raw METAR
KSFO 120156Z 24006KT 10SM FEW120 BKN200 13/09 A3016 RMK AO2 SLP214 T01330094
KSFO 120056Z 26010KT 10SM FEW120 BKN200 13/08 A3017 RMK AO2 SLP216 T01330078
KSFO 112356Z 27012KT 10SM FEW200 13/07 A3018 RMK AO2 SLP220 T01330067 10133 20083 53001

METAR Board
Radar Display
Forecast Discussion
For situational awareness. Not to be used for flight planning purposes.